createdAt,value
2022-12-31T04:00:40.354Z,7.24
2022-12-31T04:03:06.838Z,7.27
2022-12-31T04:05:33.869Z,7.11
2022-12-31T04:08:00.376Z,7.11
2022-12-31T04:10:26.825Z,7.10
2022-12-31T04:12:53.365Z,7.10
2022-12-31T04:15:21.407Z,7.09
2022-12-31T04:17:48.604Z,7.11
2022-12-31T04:20:16.427Z,7.22
2022-12-31T04:22:44.023Z,7.25
2022-12-31T04:25:11.410Z,7.12
2022-12-31T04:27:40.095Z,7.20
2022-12-31T04:30:07.914Z,7.16
2022-12-31T04:32:34.450Z,7.13
2022-12-31T04:35:00.949Z,7.11
2022-12-31T04:37:27.471Z,7.09
2022-12-31T04:39:54.021Z,7.06
2022-12-31T04:42:20.612Z,6.97
2022-12-31T04:44:47.043Z,6.97
2022-12-31T04:47:15.269Z,6.92
2022-12-31T04:49:44.009Z,6.85
2022-12-31T04:52:10.497Z,6.75
2022-12-31T04:54:37.095Z,6.63
2022-12-31T04:57:03.576Z,6.53
2022-12-31T04:59:30.052Z,6.42
2022-12-31T05:01:56.697Z,6.32
2022-12-31T05:04:23.247Z,6.27
2022-12-31T05:06:49.678Z,6.20
2022-12-31T05:09:16.146Z,6.14
2022-12-31T05:11:42.628Z,6.03
2022-12-31T05:14:09.098Z,6.01
2022-12-31T05:16:35.672Z,6.03
2022-12-31T05:19:02.314Z,6.15
2022-12-31T05:21:28.870Z,6.23
2022-12-31T05:23:55.303Z,6.28
2022-12-31T05:26:21.811Z,6.33
2022-12-31T05:28:48.236Z,6.42
2022-12-31T05:31:14.787Z,6.46
2022-12-31T05:33:41.343Z,6.38
2022-12-31T05:36:08.079Z,6.39
2022-12-31T05:38:34.588Z,6.41
2022-12-31T05:41:03.783Z,6.48
2022-12-31T05:43:31.075Z,6.54
2022-12-31T05:46:01.056Z,6.54
2022-12-31T05:48:28.325Z,6.63
2022-12-31T05:50:54.855Z,6.61
2022-12-31T05:53:21.333Z,6.66
2022-12-31T05:55:48.053Z,6.74
2022-12-31T05:58:15.934Z,6.74
2022-12-31T06:00:42.541Z,6.74
2022-12-31T06:03:09.411Z,6.80
2022-12-31T06:05:39.531Z,6.79
2022-12-31T06:08:05.970Z,6.83
2022-12-31T06:10:32.440Z,6.92
2022-12-31T06:12:58.879Z,6.94
2022-12-31T06:15:25.335Z,7.00
2022-12-31T06:17:51.794Z,6.98
2022-12-31T06:20:18.278Z,6.94
2022-12-31T06:22:44.770Z,7.03
2022-12-31T06:25:11.245Z,7.12
2022-12-31T06:27:37.840Z,7.15
2022-12-31T06:30:04.731Z,7.10
2022-12-31T06:32:31.260Z,7.19
2022-12-31T06:34:57.707Z,7.27
2022-12-31T06:37:24.168Z,7.40
2022-12-31T06:39:50.643Z,7.42
2022-12-31T06:42:17.181Z,7.35
2022-12-31T06:44:47.043Z,7.31
2022-12-31T06:47:13.493Z,7.22
2022-12-31T06:49:40.842Z,7.24
2022-12-31T06:52:07.327Z,7.23
2022-12-31T06:54:34.042Z,7.21
2022-12-31T06:57:00.780Z,7.29
2022-12-31T06:59:29.285Z,7.36
2022-12-31T07:02:11.000Z,7.37
2022-12-31T07:04:58.132Z,7.36
2022-12-31T07:07:42.909Z,7.38
2022-12-31T07:10:09.376Z,7.35
2022-12-31T07:12:48.521Z,7.40
2022-12-31T07:15:31.226Z,7.32
2022-12-31T07:18:10.311Z,7.45
2022-12-31T07:20:37.073Z,7.61
2022-12-31T07:23:03.762Z,7.82
2022-12-31T07:25:30.496Z,7.91
2022-12-31T07:28:09.604Z,8.29
2022-12-31T07:30:54.751Z,8.14
2022-12-31T07:33:48.652Z,8.30
2022-12-31T07:36:31.542Z,8.30
2022-12-31T07:39:12.892Z,8.40
2022-12-31T07:42:01.908Z,8.35
2022-12-31T07:44:43.604Z,8.43
2022-12-31T07:47:29.700Z,8.45
2022-12-31T07:49:57.354Z,8.41
2022-12-31T07:52:24.351Z,8.49
2022-12-31T07:54:50.821Z,8.48
2022-12-31T07:57:19.401Z,8.48
2022-12-31T08:00:00.879Z,8.32
2022-12-31T08:02:59.900Z,8.41
2022-12-31T08:05:45.901Z,8.40
2022-12-31T08:08:24.575Z,8.47
2022-12-31T08:11:26.337Z,8.43
2022-12-31T08:13:54.347Z,8.49
2022-12-31T08:16:21.827Z,8.51
2022-12-31T08:18:48.660Z,8.73
2022-12-31T08:21:25.263Z,9.27
2022-12-31T08:24:35.252Z,9.72
2022-12-31T08:27:07.103Z,10.67
2022-12-31T08:29:35.848Z,11.50
2022-12-31T08:32:26.143Z,10.68
2022-12-31T08:34:56.468Z,10.37
2022-12-31T08:37:49.393Z,10.29
2022-12-31T08:40:26.804Z,10.83
2022-12-31T08:43:19.870Z,11.53
2022-12-31T08:45:51.801Z,11.03
2022-12-31T08:48:45.436Z,11.02
2022-12-31T08:51:17.636Z,10.91
2022-12-31T08:53:44.404Z,10.81
2022-12-31T08:56:24.004Z,10.66
2022-12-31T08:59:07.892Z,10.76
2022-12-31T09:01:58.010Z,11.74
2022-12-31T09:04:36.869Z,12.52
2022-12-31T09:07:04.291Z,12.86
2022-12-31T09:09:41.631Z,13.16
2022-12-31T09:12:22.247Z,12.61
2022-12-31T09:14:59.198Z,12.00
2022-12-31T09:17:45.859Z,12.07
2022-12-31T09:20:43.002Z,12.76
2022-12-31T09:23:11.132Z,12.86
2022-12-31T09:25:45.727Z,12.95
2022-12-31T09:28:39.384Z,13.10
2022-12-31T09:31:15.595Z,13.07
2022-12-31T09:34:06.861Z,13.37
2022-12-31T09:36:48.434Z,13.35
2022-12-31T09:39:27.142Z,13.64
2022-12-31T09:42:18.731Z,13.58
2022-12-31T09:45:07.320Z,13.80
2022-12-31T09:47:36.687Z,13.69
2022-12-31T09:50:27.549Z,14.01
2022-12-31T09:53:24.650Z,14.08
2022-12-31T09:55:51.302Z,14.23
2022-12-31T09:58:38.077Z,14.08
2022-12-31T10:01:07.665Z,14.50
2022-12-31T10:03:52.010Z,13.83
2022-12-31T10:06:25.772Z,13.39
2022-12-31T10:09:17.082Z,13.11
2022-12-31T10:11:47.250Z,13.19
2022-12-31T10:14:30.843Z,13.33
2022-12-31T10:17:32.153Z,13.66
2022-12-31T10:20:17.373Z,13.20
2022-12-31T10:22:57.324Z,12.73
2022-12-31T10:25:39.796Z,12.59
2022-12-31T10:28:26.978Z,12.57
2022-12-31T10:31:20.129Z,12.64
2022-12-31T10:34:08.618Z,12.76
2022-12-31T10:37:10.625Z,12.99
2022-12-31T10:39:43.149Z,12.93
2022-12-31T10:42:29.835Z,12.93
2022-12-31T10:45:05.596Z,12.86
2022-12-31T10:47:31.998Z,12.87
2022-12-31T10:50:14.000Z,12.88
2022-12-31T10:53:01.453Z,12.91
2022-12-31T10:55:52.360Z,13.00
2022-12-31T10:58:36.477Z,12.74
2022-12-31T11:01:25.004Z,12.78
2022-12-31T11:04:36.433Z,12.65
2022-12-31T11:07:21.188Z,12.70
2022-12-31T11:09:59.588Z,12.61
2022-12-31T11:12:51.960Z,12.52
2022-12-31T11:15:29.064Z,12.34
2022-12-31T11:18:13.846Z,12.29
2022-12-31T11:21:00.237Z,12.23
2022-12-31T11:23:41.205Z,12.22
2022-12-31T11:26:10.658Z,12.27
2022-12-31T11:29:07.085Z,12.16
2022-12-31T11:31:50.813Z,12.19
2022-12-31T11:34:51.941Z,12.22
2022-12-31T11:37:31.835Z,12.13
2022-12-31T11:40:32.553Z,12.13
2022-12-31T11:43:20.008Z,12.07
2022-12-31T11:46:04.209Z,12.18
2022-12-31T11:48:38.819Z,12.23
2022-12-31T11:51:58.295Z,12.28
2022-12-31T11:54:36.852Z,12.41
2022-12-31T11:57:29.940Z,12.50
2022-12-31T11:59:59.554Z,12.57
2022-12-31T12:02:34.763Z,12.54
2022-12-31T12:05:10.775Z,12.52
2022-12-31T12:07:37.971Z,12.41
2022-12-31T12:10:36.713Z,12.41
2022-12-31T12:13:29.151Z,12.44
2022-12-31T12:15:58.782Z,12.45
2022-12-31T12:18:34.683Z,12.44
2022-12-31T12:21:08.311Z,12.43
2022-12-31T12:23:34.848Z,12.37
2022-12-31T12:26:01.465Z,12.34
2022-12-31T12:28:31.617Z,12.30
2022-12-31T12:31:05.326Z,12.28
2022-12-31T12:33:43.822Z,12.31
2022-12-31T12:36:15.777Z,12.27
2022-12-31T12:38:43.596Z,12.36
2022-12-31T12:41:21.683Z,12.38
2022-12-31T12:43:48.167Z,12.39
2022-12-31T12:46:32.793Z,12.43
2022-12-31T12:49:00.129Z,12.46
2022-12-31T12:51:51.323Z,12.56
2022-12-31T12:54:55.794Z,12.73
2022-12-31T12:57:42.544Z,12.76
2022-12-31T13:00:29.917Z,12.69
2022-12-31T13:03:20.877Z,12.66
2022-12-31T13:06:25.800Z,12.68
2022-12-31T13:08:55.131Z,12.68
2022-12-31T13:11:36.806Z,12.70
2022-12-31T13:14:34.280Z,12.68
2022-12-31T13:17:32.672Z,12.71
2022-12-31T13:20:13.991Z,12.62
2022-12-31T13:22:46.821Z,12.56
2022-12-31T13:25:39.522Z,12.43
2022-12-31T13:28:11.412Z,12.41
2022-12-31T13:30:42.693Z,12.56
2022-12-31T13:33:23.905Z,12.32
2022-12-31T13:36:03.518Z,12.17
2022-12-31T13:38:34.979Z,12.16
2022-12-31T13:41:17.421Z,12.16
2022-12-31T13:44:08.522Z,12.06
2022-12-31T13:47:06.997Z,12.02
2022-12-31T13:50:14.306Z,11.90
2022-12-31T13:52:57.888Z,11.87
2022-12-31T13:55:28.677Z,11.79
2022-12-31T13:58:09.615Z,11.69
2022-12-31T14:00:51.291Z,11.62
2022-12-31T14:03:30.675Z,11.57
2022-12-31T14:06:07.804Z,11.49
2022-12-31T14:08:34.307Z,11.28
2022-12-31T14:11:06.713Z,11.32
2022-12-31T14:13:57.903Z,11.24
2022-12-31T14:16:42.870Z,11.16
2022-12-31T14:19:15.066Z,11.16
2022-12-31T14:21:47.630Z,11.09
2022-12-31T14:24:42.780Z,11.04
2022-12-31T14:27:20.124Z,10.94
2022-12-31T14:30:06.315Z,10.76
2022-12-31T14:33:08.622Z,10.63
2022-12-31T14:35:39.048Z,10.55
2022-12-31T14:38:18.994Z,10.42
2022-12-31T14:41:07.292Z,10.35
2022-12-31T14:43:42.682Z,10.39
2022-12-31T14:46:43.124Z,10.38
2022-12-31T14:49:50.882Z,10.22
2022-12-31T14:52:28.590Z,10.05
2022-12-31T14:55:08.780Z,9.90
2022-12-31T14:58:17.234Z,9.79
2022-12-31T15:00:29.813Z,9.61
2022-12-31T15:03:00.512Z,9.58
2022-12-31T15:05:32.673Z,9.42
2022-12-31T15:08:39.675Z,9.26
2022-12-31T15:11:10.470Z,9.20
2022-12-31T15:13:42.723Z,9.15
2022-12-31T15:16:36.147Z,9.01
2022-12-31T15:19:08.716Z,8.95
2022-12-31T15:22:16.382Z,8.91
2022-12-31T15:24:45.992Z,8.94
2022-12-31T15:27:38.543Z,8.69
2022-12-31T15:30:07.002Z,8.60
2022-12-31T15:32:41.514Z,8.58
2022-12-31T15:35:20.088Z,8.49
2022-12-31T15:38:02.515Z,8.52
2022-12-31T15:40:29.785Z,8.39
2022-12-31T15:43:04.624Z,8.27
2022-12-31T15:45:39.110Z,8.17
2022-12-31T15:48:19.623Z,8.12
2022-12-31T15:50:46.553Z,8.17
2022-12-31T15:53:29.845Z,8.00
2022-12-31T15:55:59.545Z,7.94
2022-12-31T15:58:29.869Z,7.91
2022-12-31T16:01:28.394Z,7.78
2022-12-31T16:03:59.722Z,7.72
2022-12-31T16:06:30.295Z,7.80
2022-12-31T16:08:57.537Z,7.65
2022-12-31T16:11:24.774Z,7.59
2022-12-31T16:13:55.190Z,7.53
2022-12-31T16:16:27.961Z,7.48
2022-12-31T16:18:55.744Z,7.39
2022-12-31T16:21:34.363Z,7.35
2022-12-31T16:24:06.357Z,7.26
2022-12-31T16:26:49.386Z,7.22
2022-12-31T16:29:18.719Z,7.18
2022-12-31T16:31:52.678Z,7.08
2022-12-31T16:34:25.137Z,7.03
2022-12-31T16:36:58.242Z,6.97
2022-12-31T16:39:32.093Z,6.93
2022-12-31T16:42:09.923Z,6.91
2022-12-31T16:44:36.520Z,6.86
2022-12-31T16:47:04.081Z,6.86
2022-12-31T16:49:33.322Z,6.81
2022-12-31T16:52:04.584Z,6.79
2022-12-31T16:54:36.991Z,6.74
2022-12-31T16:57:05.496Z,6.79
2022-12-31T16:59:45.477Z,6.65
2022-12-31T17:02:18.529Z,6.55
2022-12-31T17:04:55.298Z,6.72
2022-12-31T17:07:25.588Z,6.57
2022-12-31T17:10:36.142Z,6.52
2022-12-31T17:13:28.193Z,6.46
2022-12-31T17:15:57.834Z,6.43
2022-12-31T17:18:28.834Z,6.37
2022-12-31T17:21:03.672Z,6.34
2022-12-31T17:23:34.386Z,6.48
2022-12-31T17:26:11.271Z,6.36
2022-12-31T17:28:51.016Z,6.34
2022-12-31T17:31:37.612Z,6.27
2022-12-31T17:34:15.378Z,6.27
2022-12-31T17:36:52.394Z,6.18
2022-12-31T17:39:21.223Z,6.04
2022-12-31T17:41:50.200Z,6.01
2022-12-31T17:44:22.799Z,6.07
2022-12-31T17:46:52.623Z,6.03
2022-12-31T17:49:27.288Z,5.93
2022-12-31T17:51:53.910Z,5.90
2022-12-31T17:54:20.437Z,5.90
2022-12-31T17:56:47.337Z,5.83
2022-12-31T17:59:25.626Z,5.68
2022-12-31T18:01:52.250Z,5.51
2022-12-31T18:04:20.680Z,5.44
2022-12-31T18:06:47.126Z,5.52
2022-12-31T18:09:13.786Z,5.55
2022-12-31T18:11:41.320Z,5.57
2022-12-31T18:14:08.201Z,5.58
2022-12-31T18:16:34.742Z,5.56
2022-12-31T18:19:01.342Z,5.56
2022-12-31T18:21:34.384Z,5.48
2022-12-31T18:26:29.349Z,5.44
2022-12-31T18:28:58.152Z,5.39
2022-12-31T18:31:30.016Z,5.26
2022-12-31T18:33:59.039Z,5.30
2022-12-31T18:36:27.518Z,5.18
2022-12-31T18:38:54.120Z,5.07
2022-12-31T18:41:24.355Z,5.02
2022-12-31T18:43:51.075Z,5.16
2022-12-31T18:46:20.364Z,5.08
2022-12-31T18:48:47.246Z,5.10
2022-12-31T18:51:19.728Z,5.16
2022-12-31T18:53:46.470Z,5.12
2022-12-31T18:56:15.945Z,5.19
2022-12-31T18:58:42.929Z,5.24
2022-12-31T19:01:26.153Z,5.44
2022-12-31T19:03:54.429Z,5.31
2022-12-31T19:06:20.888Z,5.17
2022-12-31T19:08:47.463Z,5.21
2022-12-31T19:11:15.098Z,5.47
2022-12-31T19:13:41.706Z,5.27
2022-12-31T19:16:09.616Z,5.32
2022-12-31T19:18:36.189Z,5.16
2022-12-31T19:21:04.900Z,5.09
2022-12-31T19:23:31.394Z,5.16
2022-12-31T19:25:57.940Z,5.31
2022-12-31T19:28:26.325Z,5.36
2022-12-31T19:30:52.838Z,5.34
2022-12-31T19:33:19.406Z,5.27
2022-12-31T19:35:46.983Z,5.20
2022-12-31T19:38:22.601Z,5.22
2022-12-31T19:40:50.400Z,5.19
2022-12-31T19:43:19.329Z,5.09
2022-12-31T19:45:46.235Z,5.07
2022-12-31T19:48:15.457Z,4.98
2022-12-31T19:50:44.025Z,5.18
2022-12-31T19:53:13.408Z,5.19
2022-12-31T19:55:40.320Z,5.04
2022-12-31T19:58:07.591Z,5.04
2022-12-31T20:00:34.518Z,5.06
2022-12-31T20:03:01.448Z,4.98
2022-12-31T20:05:28.140Z,5.12
2022-12-31T20:07:54.657Z,5.01
2022-12-31T20:10:21.226Z,4.90
2022-12-31T20:12:47.662Z,4.79
2022-12-31T20:15:14.099Z,4.86
2022-12-31T20:17:40.590Z,4.87
2022-12-31T20:20:07.583Z,4.90
2022-12-31T20:22:34.242Z,4.85
2022-12-31T20:25:00.802Z,4.94
2022-12-31T20:27:27.689Z,4.83
2022-12-31T20:29:54.127Z,4.76
2022-12-31T20:32:21.082Z,4.81
2022-12-31T20:34:47.804Z,4.78
2022-12-31T20:37:14.743Z,4.85
2022-12-31T20:39:42.641Z,4.85
2022-12-31T20:42:09.586Z,4.67
2022-12-31T20:44:36.428Z,4.72
2022-12-31T20:47:03.333Z,4.86
2022-12-31T20:49:52.507Z,5.09
2022-12-31T20:52:16.871Z,5.94
2022-12-31T20:54:43.893Z,5.69
2022-12-31T20:57:10.369Z,5.87
2022-12-31T20:59:36.831Z,6.06
2022-12-31T21:04:50.230Z,5.85
2022-12-31T21:07:16.817Z,5.79
2022-12-31T21:09:43.710Z,6.15
2022-12-31T21:12:31.945Z,6.14
2022-12-31T21:14:58.495Z,6.03
2022-12-31T21:17:24.955Z,5.81
2022-12-31T21:19:51.445Z,5.93
2022-12-31T21:22:17.875Z,6.31
2022-12-31T21:24:44.282Z,6.61
2022-12-31T21:27:10.803Z,6.49
2022-12-31T21:29:55.641Z,6.49
2022-12-31T21:32:24.003Z,6.15
2022-12-31T21:35:14.420Z,6.20
2022-12-31T21:37:58.657Z,6.14
2022-12-31T21:40:23.270Z,5.97
2022-12-31T21:42:50.280Z,5.84
2022-12-31T21:45:16.803Z,5.71
2022-12-31T21:48:02.014Z,5.58
2022-12-31T21:50:28.464Z,5.54
2022-12-31T21:52:54.958Z,5.47
2022-12-31T21:55:40.052Z,5.35
2022-12-31T22:01:11.748Z,5.23
2022-12-31T22:03:38.520Z,5.25
2022-12-31T22:06:13.650Z,5.18
2022-12-31T22:08:41.623Z,5.06
2022-12-31T22:11:08.932Z,4.96
2022-12-31T22:13:36.681Z,4.94
2022-12-31T22:16:05.774Z,4.87
2022-12-31T22:18:35.542Z,5.00
2022-12-31T22:21:17.466Z,4.98
2022-12-31T22:23:46.338Z,4.90
2022-12-31T22:26:14.827Z,4.75
2022-12-31T22:28:42.531Z,4.71
